EGPS weather

Peterhead Heliport
Peterhead, Scotland, United Kingdom

Public forecast

Using degrees Celsius for public forecast. Weather courtesy of forecast.io.

Closest aviation weather report (METAR) to Peterhead Heliport

Closest report is Aberdeen Dyce Airport, 21.9 nm (40.5 km) SSW. Retrieved 2020/07/13 13:50 UTC (18 minutes ago):

EGPD 131350Z AUTO 24005KT 170V300 9999 SCT036/// BKN046/// //////CB 20/14 Q1013 NOSIG

Closest aviation forecast (TAF) to Peterhead Heliport

Closest forecast is Aberdeen Dyce Airport, 21.9 nm (40.5 km) SSW. Retrieved 2020/07/13 12:00 UTC (2 hours ago):

TAF EGPD 131057Z 1312/1412 25010KT 9999 SCT040